Погода Карасна 2 недели

Уануко, Перу

15 - 27 июля
  • 15июля
    Сегодня
    +19°
    +34°
    Практически безоблачно
    ВремяПогодаТемператураВлажностьДавлениеВетер, м/сВероятность осадков
    01:00Ясно и безоблачно+21°C47 %581 мм0.6 м/с5 %
    04:00Ясно и безоблачно+21°C45 %580 мм0.4 м/с5 %
    07:00Ясно и безоблачно+21°C45 %581 мм0.3 м/с5 %
    10:00Ясно и безоблачно+30°C33 %585 мм0.3 м/с5 %
    13:00Практически безоблачно+32°C26 %583 мм0.7 м/с11 %
    16:00Практически безоблачно+33°C28 %583 мм1.9 м/с16 %
    19:00Ясно и безоблачно+24°C41 %581 мм1.3 м/с2 %
    22:00Ясно и безоблачно+22°C47 %581 мм0.9 м/с5 %
  • 16июля
    Вторник
    +18°
    +35°
    Ясно и безоблачно
    ВремяПогодаТемператураВлажностьДавлениеВетер, м/сВероятность осадков
    01:00Ясно и безоблачно+20°C51 %580 мм0.3 м/с5 %
    04:00Ясно и безоблачно+21°C47 %580 мм0.3 м/с5 %
    07:00Ясно и безоблачно+20°C49 %581 мм0.3 м/с5 %
    10:00Ясно и безоблачно+30°C25 %585 мм0.5 м/с5 %
    13:00Ясно и безоблачно+34°C16 %584 мм0.2 м/с5 %
    16:00Ясно и безоблачно+34°C20 %583 мм1.7 м/с5 %
    19:00Ясно и безоблачно+24°C37 %581 мм1.3 м/с5 %
    22:00Ясно и безоблачно+22°C42 %582 мм0.9 м/с5 %
  • 17июля
    Среда
    +18°
    +34°
    Ясно и безоблачно
    ВремяПогодаТемператураВлажностьДавлениеВетер, м/сВероятность осадков
    01:00Ясно и безоблачно+19°C43 %580 мм0.3 м/с5 %
    04:00Ясно и безоблачно+19°C38 %580 мм0.5 м/с5 %
    07:00Ясно и безоблачно+18°C38 %581 мм0.2 м/с5 %
    10:00Ясно и безоблачно+30°C15 %586 мм0.6 м/с5 %
    13:00Ясно и безоблачно+33°C11 %584 мм0.4 м/с5 %
    16:00Ясно и безоблачно+33°C14 %583 мм1.5 м/с5 %
    19:00Ясно и безоблачно+23°C31 %581 мм1.3 м/с5 %
    22:00Ясно и безоблачно+21°C36 %582 мм0.8 м/с5 %
  • 18июля
    Четверг
    +17°
    +33°
    Ясно и безоблачно
    ВремяПогодаТемператураВлажностьДавлениеВетер, м/сВероятность осадков
    01:00Ясно и безоблачно+19°C31 %581 мм0.5 м/с5 %
    04:00Ясно и безоблачно+19°C27 %580 мм0.8 м/с5 %
    07:00Ясно и безоблачно+18°C25 %581 мм0.5 м/с5 %
    10:00Ясно и безоблачно+30°C12 %586 мм0.3 м/с5 %
    13:00Ясно и безоблачно+32°C9 %584 мм0.8 м/с5 %
    16:00Ясно и безоблачно+33°C15 %583 мм2.1 м/с5 %
    19:00Ясно и безоблачно+24°C26 %581 мм1.2 м/с4 %
    22:00Ясно и безоблачно+22°C31 %582 мм0.5 м/с5 %
Мы используем cookies
Соглашаюсь